Time;durP1;ratioP1;P1;durP2;ratioP2;P2;SDS_P1;SDS_P2;PMS_P1;PMS_P2;Temp;Humidity;BMP_temperature;BMP_pressure;BME280_temperature;BME280_humidity;BME280_pressure;Samples;Min_cycle;Max_cycle;Signal;HPM_P1;HPM_P2
2023/09/19 00:01:30;;;;;;;5.87;5.37;;;18.70;38.10;;;;;;4990613;28;20429;-79
2023/09/19 00:03:57;;;;;;;5.87;5.57;;;18.60;37.50;;;;;;4987240;28;20433;-79
2023/09/19 00:06:26;;;;;;;5.37;5.17;;;18.60;37.80;;;;;;4994248;28;20531;-79
2023/09/19 00:08:53;;;;;;;5.50;5.30;;;18.60;37.40;;;;;;4993496;28;20436;-79
2023/09/19 00:11:18;;;;;;;5.77;5.47;;;18.60;38.00;;;;;;4990679;28;20438;-79
2023/09/19 00:13:49;;;;;;;5.87;5.47;;;18.60;37.60;;;;;;4990298;28;20429;-79
2023/09/19 00:16:15;;;;;;;5.53;5.33;;;18.60;37.50;;;;;;4993503;28;20230;-79
2023/09/19 00:18:40;;;;;;;5.67;5.47;;;18.60;37.30;;;;;;5000130;28;20433;-79
2023/09/19 00:21:07;;;;;;;5.40;5.23;;;18.70;37.70;;;;;;4989987;28;20175;-79
2023/09/19 00:23:32;;;;;;;5.77;5.57;;;18.60;37.40;;;;;;4990281;28;20185;-79
2023/09/19 00:25:59;;;;;;;5.47;5.17;;;18.60;37.80;;;;;;4991627;28;20421;-79
2023/09/19 00:28:24;;;;;;;6.00;5.60;;;18.60;37.90;;;;;;4992856;28;20565;-79
2023/09/19 00:30:50;;;;;;;5.67;5.47;;;18.60;38.40;;;;;;4990752;28;20435;-79
2023/09/19 00:33:16;;;;;;;5.90;5.60;;;18.60;38.50;;;;;;4987690;28;20179;-79
2023/09/19 00:36:05;;;;;;;5.87;5.67;;;18.60;38.60;;;;;;4995274;28;20209;-79
2023/09/19 00:38:31;;;;;;;5.27;5.00;;;18.60;38.30;;;;;;4987559;28;20565;-79
2023/09/19 00:40:59;;;;;;;6.30;5.90;;;18.60;38.00;;;;;;4989059;28;20422;-79
2023/09/19 00:43:25;;;;;;;5.90;5.70;;;18.70;38.30;;;;;;4991148;28;20430;-79
2023/09/19 00:45:53;;;;;;;6.00;5.70;;;18.70;37.90;;;;;;4991034;28;20435;-79
2023/09/19 00:48:20;;;;;;;5.63;5.43;;;18.60;37.90;;;;;;4988861;28;20281;-79
2023/09/19 00:50:47;;;;;;;5.50;5.30;;;18.60;38.40;;;;;;4987671;28;20422;-79
2023/09/19 00:53:18;;;;;;;5.27;4.97;;;18.50;39.00;;;;;;4996412;28;20476;-79
2023/09/19 00:55:44;;;;;;;6.23;5.83;;;18.50;39.00;;;;;;4988920;28;20471;-79
2023/09/19 00:58:11;;;;;;;5.57;5.37;;;18.50;39.00;;;;;;4992200;28;20444;-79
2023/09/19 01:00:38;;;;;;;5.67;5.37;;;18.50;39.00;;;;;;4989802;28;20437;-79
2023/09/19 01:03:04;;;;;;;5.40;5.20;;;18.50;39.00;;;;;;4987772;28;20185;-79
2023/09/19 01:05:30;;;;;;;5.20;5.00;;;18.40;38.90;;;;;;4987153;28;20434;-79
2023/09/19 01:07:55;;;;;;;5.80;5.60;;;18.40;39.20;;;;;;4989734;28;20454;-79
2023/09/19 01:10:22;;;;;;;5.57;5.27;;;18.40;39.30;;;;;;4990208;28;20189;-79
2023/09/19 01:12:53;;;;;;;5.30;5.10;;;18.30;39.00;;;;;;4990471;28;20201;-79
2023/09/19 01:15:40;;;;;;;5.60;5.40;;;18.30;39.40;;;;;;4987606;28;20461;-79
2023/09/19 01:18:13;;;;;;;5.30;5.20;;;18.30;39.60;;;;;;4990861;28;20437;-79
2023/09/19 01:20:57;;;;;;;5.90;5.50;;;18.30;39.80;;;;;;4998153;28;20429;-78
2023/09/19 01:24:05;;;;;;;5.47;5.27;;;18.20;40.00;;;;;;4994138;28;20496;-79
2023/09/19 01:27:02;;;;;;;5.57;5.37;;;18.20;40.30;;;;;;4982024;28;20442;-79
2023/09/19 01:29:39;;;;;;;5.40;5.20;;;18.30;39.90;;;;;;4981827;28;20492;-79
2023/09/19 01:32:06;;;;;;;5.70;5.50;;;18.30;39.30;;;;;;4988543;28;20434;-79
2023/09/19 01:34:48;;;;;;;6.27;5.97;;;18.40;38.90;;;;;;4989978;28;20424;-79
2023/09/19 01:37:20;;;;;;;5.67;5.47;;;18.40;38.90;;;;;;4979495;28;20479;-79
2023/09/19 01:40:04;;;;;;;6.50;6.20;;;18.40;38.00;;;;;;4987386;28;20445;-79
2023/09/19 01:42:33;;;;;;;6.10;5.80;;;18.40;37.50;;;;;;4994270;28;20438;-79
2023/09/19 01:45:15;;;;;;;6.00;5.80;;;18.40;37.40;;;;;;4989311;28;20470;-79
2023/09/19 01:47:50;;;;;;;6.10;5.90;;;18.50;37.40;;;;;;4990893;28;20551;-79
2023/09/19 01:50:34;;;;;;;6.40;6.00;;;18.50;36.40;;;;;;4986753;28;20426;-79
2023/09/19 01:53:05;;;;;;;6.33;6.13;;;18.50;36.60;;;;;;5003373;28;20445;-78
2023/09/19 01:55:37;;;;;;;6.33;6.13;;;18.50;36.60;;;;;;4991132;28;20472;-79
2023/09/19 01:58:32;;;;;;;6.30;6.10;;;18.50;36.60;;;;;;5003427;28;20446;-79
2023/09/19 02:01:00;;;;;;;6.67;6.40;;;18.50;36.70;;;;;;4995302;28;20472;-79
2023/09/19 02:03:27;;;;;;;6.57;6.27;;;18.40;36.50;;;;;;4986533;28;20461;-79
2023/09/19 02:05:53;;;;;;;5.80;5.60;;;18.40;36.40;;;;;;4987991;28;20489;-79
2023/09/19 02:08:23;;;;;;;5.90;5.70;;;18.40;36.60;;;;;;4990791;28;20488;-78
2023/09/19 02:10:49;;;;;;;6.43;6.23;;;18.50;36.50;;;;;;4990795;28;20490;-79
2023/09/19 02:13:20;;;;;;;6.43;6.23;;;18.40;36.30;;;;;;4988543;28;20947;-79
2023/09/19 02:15:46;;;;;;;5.93;5.73;;;18.50;36.60;;;;;;4989468;28;20291;-79
2023/09/19 02:18:12;;;;;;;6.10;5.90;;;18.50;36.50;;;;;;4999963;28;20494;-79
2023/09/19 02:20:41;;;;;;;6.10;5.90;;;18.40;36.30;;;;;;4999937;28;20440;-79
2023/09/19 02:23:08;;;;;;;6.90;6.30;;;18.50;36.40;;;;;;4992190;28;20464;-79
2023/09/19 02:25:33;;;;;;;6.30;6.00;;;18.50;35.90;;;;;;4989712;28;20492;-79
2023/09/19 02:28:01;;;;;;;6.30;6.10;;;18.50;36.00;;;;;;4988475;28;20473;-79
2023/09/19 02:30:26;;;;;;;6.60;6.40;;;18.50;36.30;;;;;;4989990;28;20186;-79
2023/09/19 02:32:52;;;;;;;6.10;5.80;;;18.50;36.00;;;;;;4989408;28;20425;-79
2023/09/19 02:35:21;;;;;;;6.30;6.10;;;18.40;36.20;;;;;;4988521;28;20263;-79
2023/09/19 02:37:47;;;;;;;6.60;6.40;;;18.50;36.20;;;;;;4988659;28;20674;-79
2023/09/19 02:40:18;;;;;;;6.60;6.30;;;18.40;36.10;;;;;;4996047;28;20432;-79
2023/09/19 02:42:49;;;;;;;6.23;5.97;;;18.40;36.40;;;;;;4996831;28;21052;-79
2023/09/19 02:45:18;;;;;;;6.57;6.17;;;18.30;36.40;;;;;;4985245;28;20807;-79
2023/09/19 02:47:47;;;;;;;6.70;6.50;;;18.30;36.10;;;;;;5001447;28;20460;-79
2023/09/19 02:50:15;;;;;;;6.50;6.30;;;18.30;36.50;;;;;;4987701;28;20849;-79
2023/09/19 02:52:49;;;;;;;6.93;6.40;;;18.30;36.70;;;;;;4990972;28;20453;-79
2023/09/19 02:55:17;;;;;;;7.00;6.60;;;18.40;36.40;;;;;;4985616;28;20479;-79
2023/09/19 02:57:56;;;;;;;6.80;6.50;;;18.40;36.40;;;;;;4984839;28;20449;-79
2023/09/19 03:00:23;;;;;;;7.00;6.70;;;18.50;36.10;;;;;;4986095;28;20433;-79
2023/09/19 03:02:54;;;;;;;6.33;6.10;;;18.50;35.70;;;;;;5001212;28;20430;-79
2023/09/19 03:05:21;;;;;;;6.70;6.50;;;18.50;36.00;;;;;;4977516;28;20438;-79
2023/09/19 03:07:50;;;;;;;6.80;6.50;;;18.40;35.80;;;;;;4986263;28;20453;-79
2023/09/19 03:10:20;;;;;;;6.87;6.67;;;18.40;36.00;;;;;;4984305;28;20960;-79
2023/09/19 03:12:50;;;;;;;7.07;6.77;;;18.40;36.30;;;;;;4984415;28;20438;-79
2023/09/19 03:15:17;;;;;;;6.70;6.23;;;18.40;36.10;;;;;;4985847;28;20472;-79
2023/09/19 03:17:47;;;;;;;6.67;6.37;;;18.50;36.20;;;;;;4985477;28;20536;-79
2023/09/19 03:20:13;;;;;;;7.10;6.80;;;18.40;36.10;;;;;;4993281;28;20430;-78
2023/09/19 03:22:40;;;;;;;7.50;7.10;;;18.40;36.40;;;;;;4985566;28;20862;-79
2023/09/19 03:25:07;;;;;;;6.90;6.60;;;18.40;36.80;;;;;;4985814;28;20442;-79
2023/09/19 03:27:34;;;;;;;7.03;6.83;;;18.30;36.80;;;;;;4990107;28;20542;-79
2023/09/19 03:30:00;;;;;;;6.97;6.77;;;18.30;37.10;;;;;;4985372;28;20445;-78
2023/09/19 03:32:26;;;;;;;7.00;6.70;;;18.30;37.40;;;;;;4989496;28;20738;-80
2023/09/19 03:34:55;;;;;;;7.30;7.00;;;18.30;37.20;;;;;;4989233;28;20186;-80
2023/09/19 03:37:20;;;;;;;6.93;6.67;;;18.30;37.40;;;;;;4978703;28;20809;-80
2023/09/19 03:39:46;;;;;;;7.10;6.90;;;18.20;38.20;;;;;;4986750;28;20433;-80
2023/09/19 03:42:11;;;;;;;7.60;7.40;;;18.20;38.00;;;;;;4991238;28;20187;-80
2023/09/19 03:44:37;;;;;;;6.67;6.37;;;18.30;37.60;;;;;;4991854;28;20196;-80
2023/09/19 03:47:04;;;;;;;6.93;6.73;;;18.30;37.60;;;;;;4990334;28;20300;-80
2023/09/19 03:49:30;;;;;;;6.40;6.20;;;18.40;37.20;;;;;;4994693;28;20197;-80
2023/09/19 03:51:56;;;;;;;6.53;6.23;;;18.40;37.10;;;;;;4992491;28;20433;-80
2023/09/19 03:54:21;;;;;;;6.87;6.57;;;18.30;37.30;;;;;;4998137;28;20178;-80
2023/09/19 03:56:47;;;;;;;6.23;6.03;;;18.30;37.40;;;;;;4995309;28;20583;-80
2023/09/19 03:59:13;;;;;;;6.53;6.23;;;18.40;37.50;;;;;;4990799;28;20182;-80
2023/09/19 04:01:41;;;;;;;6.87;6.57;;;18.30;37.20;;;;;;4993864;28;20233;-80
2023/09/19 04:04:09;;;;;;;7.10;6.90;;;18.40;37.20;;;;;;4991529;28;20429;-80
2023/09/19 04:06:35;;;;;;;7.40;7.10;;;18.40;37.30;;;;;;4989453;28;20536;-80
2023/09/19 04:09:03;;;;;;;7.17;6.87;;;18.50;37.00;;;;;;4990005;28;20952;-80
2023/09/19 04:11:30;;;;;;;8.07;7.67;;;18.60;36.80;;;;;;4992323;28;20425;-80
2023/09/19 04:13:56;;;;;;;7.33;7.10;;;18.60;36.30;;;;;;4992393;28;20817;-80
2023/09/19 04:16:22;;;;;;;7.67;7.37;;;18.80;36.00;;;;;;4988384;28;20505;-80
2023/09/19 04:18:47;;;;;;;8.53;7.93;;;18.90;35.40;;;;;;4987655;28;20476;-81
2023/09/19 04:21:13;;;;;;;8.17;7.87;;;19.00;34.30;;;;;;4991245;28;20197;-78
2023/09/19 04:23:38;;;;;;;7.50;7.20;;;19.10;34.40;;;;;;4992423;28;20246;-80
2023/09/19 04:26:04;;;;;;;7.57;7.27;;;19.20;34.40;;;;;;4989451;28;20321;-79
2023/09/19 04:28:31;;;;;;;8.10;7.80;;;19.30;33.80;;;;;;4987034;28;20190;-80
2023/09/19 04:30:57;;;;;;;7.67;7.27;;;19.30;33.40;;;;;;4989776;28;20187;-80
2023/09/19 04:33:23;;;;;;;8.30;7.87;;;19.00;34.20;;;;;;4992905;28;20468;-81
2023/09/19 04:35:51;;;;;;;8.10;7.70;;;18.90;34.80;;;;;;4996542;28;20476;-80
2023/09/19 04:38:19;;;;;;;7.60;7.27;;;18.90;35.50;;;;;;4992471;28;20612;-80
2023/09/19 04:40:45;;;;;;;7.20;6.90;;;18.80;35.60;;;;;;4996732;28;20452;-80
2023/09/19 04:43:10;;;;;;;7.70;7.30;;;18.70;36.20;;;;;;4990963;28;20951;-80
2023/09/19 04:45:38;;;;;;;8.17;7.77;;;18.60;37.20;;;;;;4989403;28;20520;-78
2023/09/19 04:48:06;;;;;;;7.37;7.07;;;18.50;37.90;;;;;;4986499;28;20686;-80
2023/09/19 04:50:34;;;;;;;7.33;7.13;;;18.40;38.20;;;;;;4989242;28;20422;-78
2023/09/19 04:53:00;;;;;;;7.47;7.10;;;18.40;38.80;;;;;;4994605;28;20442;-80
2023/09/19 04:55:26;;;;;;;7.20;6.90;;;18.40;39.20;;;;;;4992917;28;20473;-79
2023/09/19 04:57:55;;;;;;;6.83;6.63;;;18.30;40.50;;;;;;4991981;28;20484;-79
2023/09/19 05:00:27;;;;;;;7.00;6.70;;;18.30;42.00;;;;;;4987712;28;20441;-79
2023/09/19 05:02:56;;;;;;;7.30;7.00;;;18.40;43.20;;;;;;4989089;28;20430;-79
2023/09/19 05:05:28;;;;;;;6.70;6.50;;;18.30;44.80;;;;;;5006785;28;20461;-80
2023/09/19 05:07:55;;;;;;;6.80;6.40;;;18.40;45.20;;;;;;4999321;28;20462;-80
2023/09/19 05:11:09;;;;;;;6.83;6.53;;;18.40;45.50;;;;;;4979487;28;20426;-80
2023/09/19 05:13:34;;;;;;;6.80;6.50;;;18.20;46.90;;;;;;4981127;28;20430;-79
2023/09/19 05:16:03;;;;;;;6.77;6.57;;;18.20;46.50;;;;;;4980220;28;20465;-79
2023/09/19 05:18:29;;;;;;;6.53;6.23;;;18.10;47.40;;;;;;4978562;28;20591;-79
2023/09/19 05:20:54;;;;;;;6.70;6.30;;;18.00;46.50;;;;;;4979605;28;20422;-79
2023/09/19 05:23:21;;;;;;;6.47;6.17;;;17.90;47.50;;;;;;4979725;28;20250;-79
2023/09/19 05:25:46;;;;;;;6.40;6.10;;;17.90;47.90;;;;;;4979649;28;20201;-79
2023/09/19 05:28:14;;;;;;;6.20;6.00;;;17.90;48.60;;;;;;5021025;22;20606;-77
2023/09/19 05:30:41;;;;;;;6.17;5.87;;;17.90;48.60;;;;;;5015514;28;20177;-77
2023/09/19 05:33:07;;;;;;;6.10;5.90;;;17.90;49.40;;;;;;5026406;28;20424;-77
2023/09/19 05:35:33;;;;;;;6.50;6.30;;;17.90;48.50;;;;;;5032276;28;20475;-78
2023/09/19 05:37:59;;;;;;;6.43;6.23;;;17.90;48.20;;;;;;5016259;28;20444;-78
2023/09/19 05:40:25;;;;;;;6.17;5.97;;;18.00;48.10;;;;;;5007953;28;20484;-78
2023/09/19 05:42:51;;;;;;;7.10;6.80;;;18.20;46.70;;;;;;5013687;28;20421;-77
2023/09/19 05:45:22;;;;;;;6.93;6.50;;;18.30;46.50;;;;;;5014066;28;20434;-77
2023/09/19 05:47:48;;;;;;;6.87;6.57;;;18.40;46.10;;;;;;5013810;28;20189;-76
2023/09/19 05:50:16;;;;;;;6.90;6.40;;;18.40;43.40;;;;;;5013040;28;20424;-76
2023/09/19 05:52:42;;;;;;;7.57;6.97;;;18.40;43.10;;;;;;5013778;28;20424;-76
2023/09/19 05:55:08;;;;;;;6.83;6.40;;;18.40;44.00;;;;;;5013867;28;20543;-76
2023/09/19 05:57:34;;;;;;;6.47;6.10;;;18.40;44.90;;;;;;5014165;28;20477;-77
2023/09/19 06:00:01;;;;;;;7.00;6.60;;;18.40;45.30;;;;;;5013300;28;20984;-76
2023/09/19 06:02:28;;;;;;;6.10;5.90;;;18.40;46.20;;;;;;5012132;28;20509;-77
2023/09/19 06:04:55;;;;;;;7.60;7.03;;;18.40;47.70;;;;;;5011942;28;20193;-77
2023/09/19 06:07:26;;;;;;;8.30;7.90;;;18.30;46.10;;;;;;5013437;28;20476;-77
2023/09/19 06:09:53;;;;;;;7.97;7.50;;;18.10;45.90;;;;;;5013171;28;20486;-77
2023/09/19 06:12:19;;;;;;;8.07;7.10;;;18.00;48.40;;;;;;5013008;28;20432;-77
2023/09/19 06:14:44;;;;;;;6.80;6.50;;;18.00;48.00;;;;;;5012438;28;20799;-78
2023/09/19 06:17:10;;;;;;;6.70;6.40;;;17.90;48.90;;;;;;5013759;28;20205;-76
2023/09/19 06:19:39;;;;;;;7.00;6.80;;;17.80;49.00;;;;;;5018549;28;20218;-78
2023/09/19 06:22:04;;;;;;;7.37;7.07;;;18.00;48.60;;;;;;5019891;28;20673;-76
2023/09/19 06:24:30;;;;;;;7.20;6.80;;;18.00;46.20;;;;;;5019847;28;20439;-76
2023/09/19 06:26:56;;;;;;;7.70;7.30;;;18.10;45.80;;;;;;5019439;28;20212;-75
2023/09/19 06:29:23;;;;;;;8.40;8.00;;;18.20;44.30;;;;;;5014408;28;20436;-76
2023/09/19 06:31:48;;;;;;;8.37;7.97;;;18.10;43.90;;;;;;5012721;28;20212;-76
2023/09/19 06:34:15;;;;;;;9.03;8.50;;;17.80;44.50;;;;;;5013011;28;20432;-76
2023/09/19 06:36:41;;;;;;;8.47;8.00;;;17.80;44.20;;;;;;5012761;28;20219;-75
2023/09/19 06:39:06;;;;;;;9.40;8.80;;;17.80;44.60;;;;;;5011842;28;20899;-76
2023/09/19 06:41:32;;;;;;;8.23;7.83;;;17.70;44.00;;;;;;5012584;28;20265;-77
2023/09/19 06:43:58;;;;;;;8.90;8.50;;;17.70;44.90;;;;;;5012662;28;20193;-77
2023/09/19 06:46:24;;;;;;;8.37;7.63;;;17.60;44.50;;;;;;5011126;28;20275;-77
2023/09/19 06:48:52;;;;;;;8.53;8.13;;;17.70;44.80;;;;;;5012693;28;20671;-77
2023/09/19 06:51:18;;;;;;;9.00;8.50;;;17.80;44.80;;;;;;5012175;28;20459;-77
2023/09/19 06:53:43;;;;;;;7.40;7.10;;;17.70;45.30;;;;;;5013148;28;20427;-76
2023/09/19 06:56:09;;;;;;;12.80;11.93;;;17.60;45.50;;;;;;5013295;28;20510;-76
2023/09/19 06:58:36;;;;;;;8.37;8.00;;;17.70;45.60;;;;;;5013164;28;20657;-75
2023/09/19 07:01:03;;;;;;;8.10;7.70;;;17.70;43.20;;;;;;5013433;28;20417;-77
2023/09/19 07:03:28;;;;;;;8.70;7.50;;;17.70;42.40;;;;;;5012571;28;20424;-76
2023/09/19 07:05:55;;;;;;;8.93;8.33;;;17.80;43.40;;;;;;5012719;28;20423;-77
2023/09/19 07:08:21;;;;;;;8.97;8.33;;;17.90;43.50;;;;;;5012730;28;20208;-77
2023/09/19 07:10:48;;;;;;;7.60;7.30;;;17.90;42.90;;;;;;5013132;28;20826;-78
2023/09/19 07:13:16;;;;;;;8.23;7.73;;;18.00;43.90;;;;;;5010877;28;20193;-76
2023/09/19 07:15:46;;;;;;;7.97;7.47;;;18.20;42.90;;;;;;5016250;28;20472;-76
2023/09/19 07:18:16;;;;;;;9.07;8.37;;;18.20;42.10;;;;;;5016138;28;20962;-76
2023/09/19 07:20:45;;;;;;;9.93;9.43;;;18.30;40.60;;;;;;5016297;28;20482;-76
2023/09/19 07:23:13;;;;;;;8.37;7.97;;;18.10;41.20;;;;;;5015866;28;20515;-75
2023/09/19 07:25:39;;;;;;;9.00;8.40;;;18.00;41.60;;;;;;5016451;28;20459;-78
2023/09/19 07:28:05;;;;;;;8.20;7.83;;;18.00;41.10;;;;;;5014429;28;20482;-77
2023/09/19 07:30:31;;;;;;;8.50;8.13;;;17.90;41.00;;;;;;5016262;28;20423;-76
2023/09/19 07:32:57;;;;;;;8.27;7.87;;;17.90;41.40;;;;;;5015653;28;20420;-77
2023/09/19 07:35:22;;;;;;;9.07;8.67;;;17.90;41.40;;;;;;5014808;28;20212;-76
2023/09/19 07:37:49;;;;;;;7.97;7.60;;;17.90;42.20;;;;;;5014642;28;20197;-75
2023/09/19 07:40:16;;;;;;;7.60;7.20;;;17.80;42.00;;;;;;5014524;28;20181;-77
2023/09/19 07:42:44;;;;;;;7.47;6.90;;;17.80;42.50;;;;;;5015591;28;20507;-77
2023/09/19 07:45:14;;;;;;;6.50;6.17;;;17.90;42.20;;;;;;5015626;28;20886;-77
2023/09/19 07:47:49;;;;;;;7.70;7.30;;;18.00;42.50;;;;;;5016483;28;20448;-78
2023/09/19 07:50:19;;;;;;;7.57;7.17;;;18.10;42.70;;;;;;5016395;28;20801;-77
2023/09/19 07:52:46;;;;;;;6.80;6.50;;;18.10;40.50;;;;;;5014703;28;20507;-76
2023/09/19 07:55:15;;;;;;;7.83;7.30;;;18.10;41.00;;;;;;5015933;28;20564;-77
2023/09/19 07:57:42;;;;;;;7.70;7.30;;;18.20;40.30;;;;;;5015704;28;20972;-77
2023/09/19 08:00:09;;;;;;;7.90;7.27;;;18.20;40.10;;;;;;5015379;28;20435;-76
2023/09/19 08:02:38;;;;;;;8.10;7.70;;;18.20;39.10;;;;;;5015698;28;20424;-77
2023/09/19 08:05:10;;;;;;;6.70;6.30;;;18.20;40.60;;;;;;5017986;28;20423;-76
2023/09/19 08:07:41;;;;;;;7.10;6.60;;;18.20;38.90;;;;;;5010661;28;20781;-77
2023/09/19 08:10:07;;;;;;;6.50;6.10;;;18.20;40.50;;;;;;5016172;28;20428;-76
2023/09/19 08:12:35;;;;;;;6.80;6.40;;;18.30;38.80;;;;;;5011085;28;20436;-77
2023/09/19 08:15:02;;;;;;;6.80;6.40;;;18.40;39.40;;;;;;5018904;28;20447;-76
2023/09/19 08:17:28;;;;;;;6.83;6.40;;;18.50;39.70;;;;;;5017392;28;20440;-77
2023/09/19 08:19:53;;;;;;;6.50;6.30;;;18.40;37.60;;;;;;5014603;28;20429;-76
2023/09/19 08:22:23;;;;;;;6.60;6.40;;;18.60;39.10;;;;;;5015388;28;20189;-76
2023/09/19 08:24:49;;;;;;;6.43;6.20;;;18.60;39.10;;;;;;5014504;28;20182;-76
2023/09/19 08:27:15;;;;;;;7.33;7.03;;;18.80;39.40;;;;;;5012777;28;20456;-78
2023/09/19 08:29:42;;;;;;;6.70;6.30;;;18.80;37.50;;;;;;5015445;28;20518;-77
2023/09/19 08:32:07;;;;;;;7.00;6.70;;;18.80;36.90;;;;;;5014693;28;20510;-77
2023/09/19 08:34:33;;;;;;;7.13;6.93;;;18.80;37.10;;;;;;5013522;28;20511;-76
2023/09/19 08:36:59;;;;;;;7.07;6.77;;;18.80;36.80;;;;;;5014536;28;20205;-76
2023/09/19 08:39:25;;;;;;;7.10;6.90;;;18.90;37.80;;;;;;5014394;28;20420;-76
2023/09/19 08:42:01;;;;;;;7.37;6.97;;;18.90;35.90;;;;;;5013030;28;20182;-75
2023/09/19 08:44:30;;;;;;;7.00;6.70;;;19.00;36.90;;;;;;5014366;28;20424;-76
2023/09/19 08:47:03;;;;;;;7.97;7.40;;;19.10;36.20;;;;;;5014370;28;20448;-76
2023/09/19 08:50:00;;;;;;;7.90;7.40;;;19.10;32.20;;;;;;5014193;28;20430;-76
2023/09/19 08:52:33;;;;;;;7.33;7.03;;;19.20;31.60;;;;;;5014146;28;20420;-75
2023/09/19 08:55:04;;;;;;;6.83;6.53;;;19.40;31.90;;;;;;5014436;28;20424;-76
2023/09/19 08:57:37;;;;;;;7.20;7.00;;;19.50;31.20;;;;;;5015112;28;21027;-77
2023/09/19 09:00:11;;;;;;;7.00;6.70;;;19.60;30.10;;;;;;5014921;28;20429;-77
2023/09/19 09:02:41;;;;;;;7.70;7.30;;;19.70;29.80;;;;;;5014549;28;20416;-78
2023/09/19 09:05:10;;;;;;;7.90;7.60;;;19.90;29.90;;;;;;5013744;28;20424;-78
2023/09/19 09:07:37;;;;;;;7.37;7.10;;;20.00;29.00;;;;;;4998213;28;20449;-78
2023/09/19 09:10:04;;;;;;;8.03;7.67;;;20.10;28.00;;;;;;5014731;28;20805;-77
2023/09/19 09:12:30;;;;;;;7.83;7.53;;;20.20;28.60;;;;;;5012540;28;20417;-75
2023/09/19 09:14:57;;;;;;;7.30;7.10;;;20.30;28.40;;;;;;5015699;28;20424;-75
2023/09/19 09:17:26;;;;;;;7.60;7.30;;;20.50;26.90;;;;;;5016324;28;20444;-77
2023/09/19 09:19:55;;;;;;;7.70;7.20;;;20.50;26.00;;;;;;5014513;28;20432;-76
2023/09/19 09:22:21;;;;;;;7.80;7.40;;;20.50;24.90;;;;;;5016117;28;20416;-76
2023/09/19 09:24:58;;;;;;;7.47;7.10;;;20.50;24.40;;;;;;5015605;28;20424;-77
2023/09/19 09:27:24;;;;;;;6.90;6.70;;;20.70;23.40;;;;;;5014676;28;20586;-77
2023/09/19 09:29:51;;;;;;;8.20;7.80;;;20.60;22.10;;;;;;5014265;28;20508;-75
2023/09/19 09:32:33;;;;;;;8.20;7.80;;;20.60;22.40;;;;;;5013586;28;20416;-76
2023/09/19 09:35:00;;;;;;;8.00;7.60;;;20.70;20.70;;;;;;5013021;28;20420;-77
2023/09/19 09:37:29;;;;;;;7.27;6.87;;;20.70;20.00;;;;;;5013401;28;20444;-76
2023/09/19 09:39:58;;;;;;;8.17;7.90;;;20.70;19.90;;;;;;5013612;28;20523;-77
2023/09/19 09:42:38;;;;;;;8.03;7.63;;;20.80;19.90;;;;;;5013051;28;20420;-77
2023/09/19 09:45:17;;;;;;;8.87;8.33;;;20.90;19.90;;;;;;5013124;28;20420;-77
2023/09/19 09:47:55;;;;;;;8.77;8.47;;;21.10;21.10;;;;;;5006461;28;20964;-76
2023/09/19 09:50:29;;;;;;;9.43;9.03;;;21.00;18.90;;;;;;5011674;28;20428;-76
2023/09/19 09:53:08;;;;;;;8.50;8.20;;;21.00;19.60;;;;;;5012801;28;20464;-77
2023/09/19 09:55:57;;;;;;;7.43;7.13;;;21.00;18.70;;;;;;5011571;28;20999;-77
2023/09/19 09:58:28;;;;;;;10.93;10.30;;;21.10;18.00;;;;;;5012717;28;20489;-76
2023/09/19 10:01:02;;;;;;;8.17;7.80;;;21.00;18.30;;;;;;5013236;28;20458;-76
2023/09/19 10:03:39;;;;;;;8.10;7.80;;;21.00;18.10;;;;;;5013678;28;20419;-77
2023/09/19 10:06:25;;;;;;;8.57;8.00;;;20.90;18.40;;;;;;5011566;28;20440;-76
2023/09/19 10:09:29;;;;;;;7.87;7.47;;;21.10;18.20;;;;;;5011513;28;20460;-75
2023/09/19 10:12:05;;;;;;;7.80;7.50;;;21.10;18.90;;;;;;5006624;28;20431;-77
2023/09/19 10:14:36;;;;;;;8.03;7.63;;;21.20;19.20;;;;;;5012663;28;20563;-77
2023/09/19 10:17:04;;;;;;;8.53;8.23;;;21.10;18.20;;;;;;5011107;28;20555;-75
2023/09/19 10:19:33;;;;;;;8.90;8.60;;;21.20;17.50;;;;;;5012124;28;20791;-77
2023/09/19 10:22:01;;;;;;;8.10;7.70;;;21.10;16.20;;;;;;5012334;28;20607;-77
2023/09/19 10:24:28;;;;;;;7.67;7.47;;;20.90;16.50;;;;;;5012274;28;20781;-76
2023/09/19 10:26:55;;;;;;;7.83;7.53;;;20.90;17.20;;;;;;5012164;28;20448;-77
2023/09/19 10:29:21;;;;;;;8.00;7.70;;;20.90;17.80;;;;;;5012317;28;20429;-77
2023/09/19 10:31:48;;;;;;;8.50;8.00;;;21.00;18.00;;;;;;5012046;28;20522;-77
2023/09/19 10:34:17;;;;;;;8.90;8.50;;;20.90;18.00;;;;;;5012124;28;20428;-76
2023/09/19 10:36:47;;;;;;;8.70;8.30;;;21.10;18.10;;;;;;5004548;28;20467;-77
2023/09/19 10:39:18;;;;;;;9.13;8.60;;;21.10;17.80;;;;;;5012317;28;20432;-76
2023/09/19 10:41:54;;;;;;;8.50;8.20;;;21.00;18.10;;;;;;5004344;28;20424;-77
2023/09/19 10:44:25;;;;;;;8.50;8.30;;;21.00;18.80;;;;;;5010843;28;20443;-77
2023/09/19 10:46:52;;;;;;;9.13;8.63;;;21.20;18.30;;;;;;5012252;28;20452;-77
2023/09/19 10:49:19;;;;;;;8.77;8.47;;;21.20;17.80;;;;;;5010564;28;20702;-76
2023/09/19 10:51:49;;;;;;;9.30;9.00;;;21.20;17.40;;;;;;5011920;28;20420;-76
2023/09/19 10:54:19;;;;;;;8.70;8.40;;;21.40;17.70;;;;;;5012318;28;20452;-77
2023/09/19 10:56:50;;;;;;;8.50;8.20;;;21.40;17.10;;;;;;5012011;28;20836;-77
2023/09/19 10:59:18;;;;;;;8.27;7.97;;;21.50;15.50;;;;;;5012171;28;20503;-77
2023/09/19 11:01:56;;;;;;;8.43;7.90;;;21.40;15.80;;;;;;5012191;28;20432;-77
2023/09/19 11:04:29;;;;;;;8.57;8.17;;;21.30;16.60;;;;;;5012135;28;20486;-76
2023/09/19 11:07:14;;;;;;;8.17;7.87;;;21.20;16.20;;;;;;5012470;28;20836;-77
2023/09/19 11:09:54;;;;;;;8.67;8.27;;;21.10;16.60;;;;;;5012769;28;20428;-76
2023/09/19 11:12:35;;;;;;;8.73;8.33;;;21.10;16.80;;;;;;5012485;28;20775;-78
2023/09/19 11:15:07;;;;;;;8.07;7.67;;;21.00;17.50;;;;;;5012720;28;20455;-74
2023/09/19 11:17:35;;;;;;;8.80;8.30;;;21.00;17.00;;;;;;5011431;28;20601;-74
2023/09/19 11:22:49;;;;;;;8.53;8.13;;;21.10;17.10;;;;;;5012803;28;20427;-76
2023/09/19 11:25:30;;;;;;;8.30;8.00;;;21.20;16.90;;;;;;5012317;28;20974;-76
2023/09/19 11:28:26;;;;;;;9.07;8.60;;;21.30;16.70;;;;;;5018999;22;21007;-78
2023/09/19 11:30:55;;;;;;;8.20;7.90;;;21.60;15.80;;;;;;4996490;28;20524;-77
2023/09/19 11:33:36;;;;;;;8.57;8.17;;;21.50;14.50;;;;;;4995341;28;20433;-78
2023/09/19 11:36:04;;;;;;;7.73;7.33;;;21.60;14.20;;;;;;4997057;28;20465;-77
2023/09/19 11:38:45;;;;;;;8.40;8.00;;;21.70;14.20;;;;;;4992977;28;20461;-78
2023/09/19 11:41:20;;;;;;;8.47;8.03;;;21.80;12.80;;;;;;4994276;28;20417;-73
2023/09/19 11:43:46;;;;;;;8.00;7.70;;;21.90;12.60;;;;;;4987183;28;20432;-77
2023/09/19 11:46:12;;;;;;;8.83;8.50;;;21.80;12.40;;;;;;5002596;28;20432;-76
2023/09/19 11:48:40;;;;;;;8.80;8.50;;;21.80;12.20;;;;;;5000664;28;20507;-76
2023/09/19 11:51:26;;;;;;;8.27;7.83;;;21.80;12.60;;;;;;5003871;28;20205;-77
2023/09/19 11:53:56;;;;;;;8.50;8.20;;;21.90;12.80;;;;;;4997260;28;20413;-76
2023/09/19 11:56:24;;;;;;;8.67;8.37;;;21.90;12.90;;;;;;4993600;28;20840;-76
2023/09/19 11:58:54;;;;;;;8.63;8.33;;;22.00;12.90;;;;;;4995025;28;20455;-76
2023/09/19 12:01:32;;;;;;;173.67;126.30;;;22.00;13.20;;;;;;4997334;28;20416;-76
2023/09/19 12:03:59;;;;;;;9.20;8.73;;;22.00;13.00;;;;;;4988092;28;20939;-77
2023/09/19 12:06:26;;;;;;;7.93;7.70;;;22.00;12.10;;;;;;4995642;28;20452;-76
2023/09/19 12:08:54;;;;;;;7.70;7.40;;;22.00;12.00;;;;;;4996365;28;20511;-76
2023/09/19 12:11:21;;;;;;;7.80;7.50;;;22.10;12.60;;;;;;4998544;28;20932;-77
2023/09/19 12:13:48;;;;;;;7.83;7.63;;;22.10;12.60;;;;;;4987364;28;20796;-76
2023/09/19 12:16:24;;;;;;;8.00;7.60;;;22.20;12.30;;;;;;4996329;28;20456;-76
2023/09/19 12:18:50;;;;;;;8.47;7.93;;;22.20;12.50;;;;;;4994656;28;20527;-76
2023/09/19 12:21:27;;;;;;;7.90;7.60;;;22.30;12.80;;;;;;4999139;28;20476;-76
2023/09/19 12:24:04;;;;;;;8.00;7.50;;;22.50;12.20;;;;;;4994463;28;20844;-77
2023/09/19 12:26:37;;;;;;;8.23;7.93;;;22.40;12.30;;;;;;4996285;28;20929;-77
2023/09/19 12:29:04;;;;;;;8.80;8.50;;;22.30;12.40;;;;;;4999673;28;20544;-76
2023/09/19 12:31:35;;;;;;;9.07;8.67;;;22.30;12.50;;;;;;4995761;28;20421;-77
2023/09/19 12:34:01;;;;;;;8.13;7.73;;;22.10;12.80;;;;;;5000018;28;20462;-77
2023/09/19 12:36:30;;;;;;;8.63;8.33;;;22.10;12.40;;;;;;4995208;28;20520;-77
2023/09/19 12:38:58;;;;;;;8.50;8.10;;;22.10;12.80;;;;;;4994057;28;20762;-77
2023/09/19 12:41:25;;;;;;;7.77;7.57;;;22.20;12.90;;;;;;4995489;28;20496;-75
2023/09/19 12:43:53;;;;;;;7.77;7.57;;;22.40;12.60;;;;;;4996268;28;20572;-78
2023/09/19 12:46:24;;;;;;;7.70;7.40;;;22.50;12.50;;;;;;5005755;28;20433;-78
2023/09/19 12:49:17;;;;;;;7.80;7.50;;;22.60;11.50;;;;;;5006771;28;20535;-77
2023/09/19 12:51:43;;;;;;;7.93;7.63;;;22.70;11.30;;;;;;4999970;28;20429;-77
2023/09/19 12:54:10;;;;;;;7.67;7.27;;;22.70;11.30;;;;;;5000129;28;20425;-78
2023/09/19 12:56:48;;;;;;;7.57;7.07;;;22.70;11.40;;;;;;5000544;28;20463;-78
2023/09/19 12:59:15;;;;;;;7.50;7.30;;;22.60;11.40;;;;;;4999490;28;20433;-78
2023/09/19 13:01:50;;;;;;;7.60;7.20;;;22.70;12.20;;;;;;5000763;28;20928;-77